Aeroporto :
LOGIN :

Iscrizione | Disclaimer

   EN    FR    IT 

 










Sommario :    VFR   VFR Marginale   IFR   IFR Intensivo   IFR Molto Intensivo
Visibilità : 
Base nubi : 
>= 8 km
>= 3000ft
5 / 8 km
1000 / 3000 ft
1500m / 5 km
500 / 1000 ft
800 / 1500m
200 / 500 ft
< 800m
< 200 ft
Simboli :   Temporali  Nebbia  Neve Forte  Precipitazioni Forti  Vento > 20 kt
SIGMETs :   Varie  Temporali  Ghiacco  Turbolenza  Onda orograficha  Ceneri Vulcaniche






- Altitudine del aeroporto : 200 ft


EBBL - Klein Brogel AB

ULTIMO METAR :
  • 051825Z AUTO VRB02KT 9999 NCD 27/08 Q1015 BLU

METARs OBSOLETI :
  • 051755Z AUTO 21004KT 9999 NCD 27/07 Q1015 BLU
  • 051725Z AUTO 23006KT 9999 NCD 28/07 Q1015 BLU
  • 051655Z AUTO 19006KT 9999 NCD 29/07 Q1015 BLU
  • 051625Z AUTO 22008KT 9999 NCD 29/06 Q1015 BLU
  • 051555Z AUTO 22008KT 9999 NCD 29/06 Q1015 BLU

TAF TAF EBBL
Valido dal 05 a 19 ore il 06 a 07 ore UTC


051541Z 0519/0607 18005KT 9999 FEW200
BECMG 0502/0504 SCT120



MetMap, La meteo Aeronautica in un colpo d'occhio ! - Copyright ORBIFLY Dicembre 2007 - Disclaimer

ORBIFLY MET'MAP TEAM :

Programmazione e sviluppo : Alexandra Zaïnal
Concezione : Baudouin d'Aumeries
Aiuto per la programmazione : Marc-Olivier Méhu
Supporto tecnico e logistico : Manuel Goepfert
Aiuto per la traduzione : Arnaldo La Scala

Contatto : metmap@orbifly.com




FONTI E CREDITI :

   NOAA